sensor_id;sensor_type;location;lat;lon;timestamp;pressure;altitude;pressure_sealevel;temperature;humidity
73245;BME280;61460;41.158;-73.238;2023-06-04T00:02:21;101853.69;;;25.35;44.52
73245;BME280;61460;41.158;-73.238;2023-06-04T00:04:51;101849.13;;;25.40;44.21
73245;BME280;61460;41.158;-73.238;2023-06-04T00:07:21;101856.16;;;25.33;44.04
73245;BME280;61460;41.158;-73.238;2023-06-04T00:09:52;101863.24;;;25.36;43.98
73245;BME280;61460;41.158;-73.238;2023-06-04T00:12:22;101856.81;;;25.39;43.82
73245;BME280;61460;41.158;-73.238;2023-06-04T00:14:52;101861.13;;;25.31;43.84
73245;BME280;61460;41.158;-73.238;2023-06-04T00:17:23;101860.16;;;25.35;43.69
73245;BME280;61460;41.158;-73.238;2023-06-04T00:19:53;101870.15;;;25.27;43.79
73245;BME280;61460;41.158;-73.238;2023-06-04T00:22:24;101870.98;;;25.31;43.36
73245;BME280;61460;41.158;-73.238;2023-06-04T00:24:54;101872.64;;;25.31;43.37
73245;BME280;61460;41.158;-73.238;2023-06-04T00:27:24;101874.83;;;25.27;43.20
73245;BME280;61460;41.158;-73.238;2023-06-04T00:29:55;101878.42;;;25.24;43.14
73245;BME280;61460;41.158;-73.238;2023-06-04T00:32:25;101874.21;;;25.23;43.40
73245;BME280;61460;41.158;-73.238;2023-06-04T00:34:56;101877.11;;;25.16;43.47
73245;BME280;61460;41.158;-73.238;2023-06-04T00:37:28;101878.33;;;25.15;43.55
73245;BME280;61460;41.158;-73.238;2023-06-04T00:39:57;101881.80;;;25.16;43.79
73245;BME280;61460;41.158;-73.238;2023-06-04T00:42:27;101876.96;;;25.24;43.46
73245;BME280;61460;41.158;-73.238;2023-06-04T00:44:58;101880.03;;;25.14;43.57
73245;BME280;61460;41.158;-73.238;2023-06-04T00:47:28;101875.87;;;25.18;43.23
73245;BME280;61460;41.158;-73.238;2023-06-04T00:49:58;101880.15;;;25.14;42.98
73245;BME280;61460;41.158;-73.238;2023-06-04T00:52:28;101885.14;;;25.08;42.84
73245;BME280;61460;41.158;-73.238;2023-06-04T00:54:59;101884.71;;;25.14;43.05
73245;BME280;61460;41.158;-73.238;2023-06-04T00:57:29;101888.45;;;25.13;42.83
73245;BME280;61460;41.158;-73.238;2023-06-04T01:00:00;101880.29;;;25.08;43.10
73245;BME280;61460;41.158;-73.238;2023-06-04T01:02:31;101887.80;;;25.14;43.04
73245;BME280;61460;41.158;-73.238;2023-06-04T01:05:06;101886.04;;;25.17;43.18
73245;BME280;61460;41.158;-73.238;2023-06-04T01:07:31;101888.81;;;25.21;43.12
73245;BME280;61460;41.158;-73.238;2023-06-04T01:10:02;101897.33;;;25.23;43.29
73245;BME280;61460;41.158;-73.238;2023-06-04T01:12:32;101896.32;;;25.29;43.92
73245;BME280;61460;41.158;-73.238;2023-06-04T01:15:03;101901.27;;;25.36;43.83
73245;BME280;61460;41.158;-73.238;2023-06-04T01:17:39;101904.38;;;25.39;43.88
73245;BME280;61460;41.158;-73.238;2023-06-04T01:20:15;101916.55;;;25.44;43.74
73245;BME280;61460;41.158;-73.238;2023-06-04T01:22:39;101920.41;;;25.31;43.61
73245;BME280;61460;41.158;-73.238;2023-06-04T01:25:09;101925.95;;;25.31;43.28
73245;BME280;61460;41.158;-73.238;2023-06-04T01:27:35;101920.15;;;25.30;43.04
73245;BME280;61460;41.158;-73.238;2023-06-04T01:30:07;101927.09;;;25.34;42.83
73245;BME280;61460;41.158;-73.238;2023-06-04T01:32:36;101927.09;;;25.33;42.53
73245;BME280;61460;41.158;-73.238;2023-06-04T01:35:08;101927.67;;;25.28;42.29
73245;BME280;61460;41.158;-73.238;2023-06-04T01:37:37;101928.51;;;25.23;42.28
73245;BME280;61460;41.158;-73.238;2023-06-04T01:40:08;101924.57;;;25.23;42.15
73245;BME280;61460;41.158;-73.238;2023-06-04T01:42:37;101922.59;;;25.22;41.98
73245;BME280;61460;41.158;-73.238;2023-06-04T01:45:09;101924.47;;;25.25;41.89
73245;BME280;61460;41.158;-73.238;2023-06-04T01:47:38;101928.68;;;25.26;41.58
73245;BME280;61460;41.158;-73.238;2023-06-04T01:50:09;101927.94;;;25.06;42.02
73245;BME280;61460;41.158;-73.238;2023-06-04T01:52:40;101929.67;;;25.26;41.71
73245;BME280;61460;41.158;-73.238;2023-06-04T01:55:11;101931.32;;;25.23;41.62
73245;BME280;61460;41.158;-73.238;2023-06-04T01:57:41;101925.15;;;25.12;41.80
73245;BME280;61460;41.158;-73.238;2023-06-04T02:00:11;101927.92;;;25.18;41.60
73245;BME280;61460;41.158;-73.238;2023-06-04T02:02:42;101925.06;;;25.21;41.59
73245;BME280;61460;41.158;-73.238;2023-06-04T02:05:11;101922.11;;;25.15;41.69
73245;BME280;61460;41.158;-73.238;2023-06-04T02:07:43;101921.98;;;25.02;41.95
73245;BME280;61460;41.158;-73.238;2023-06-04T02:10:14;101917.51;;;25.04;42.34
73245;BME280;61460;41.158;-73.238;2023-06-04T02:15:12;101910.38;;;25.23;41.95
73245;BME280;61460;41.158;-73.238;2023-06-04T02:17:42;101912.23;;;25.15;42.16
73245;BME280;61460;41.158;-73.238;2023-06-04T02:20:13;101911.38;;;25.00;42.49
73245;BME280;61460;41.158;-73.238;2023-06-04T02:22:44;101917.19;;;24.94;42.66
73245;BME280;61460;41.158;-73.238;2023-06-04T02:25:14;101911.45;;;25.16;42.46
73245;BME280;61460;41.158;-73.238;2023-06-04T02:27:45;101915.34;;;25.03;42.90
73245;BME280;61460;41.158;-73.238;2023-06-04T02:30:15;101910.95;;;25.02;42.89
73245;BME280;61460;41.158;-73.238;2023-06-04T02:32:45;101906.90;;;25.11;43.04
73245;BME280;61460;41.158;-73.238;2023-06-04T02:35:15;101914.99;;;25.08;43.08
73245;BME280;61460;41.158;-73.238;2023-06-04T02:37:45;101915.91;;;25.05;43.04
73245;BME280;61460;41.158;-73.238;2023-06-04T02:40:16;101916.87;;;25.03;43.20
73245;BME280;61460;41.158;-73.238;2023-06-04T02:42:47;101921.76;;;25.02;43.48
73245;BME280;61460;41.158;-73.238;2023-06-04T02:45:17;101930.40;;;25.12;43.33
73245;BME280;61460;41.158;-73.238;2023-06-04T02:47:47;101925.81;;;25.10;43.15
73245;BME280;61460;41.158;-73.238;2023-06-04T02:50:18;101929.50;;;24.88;43.38
73245;BME280;61460;41.158;-73.238;2023-06-04T02:52:49;101924.66;;;24.84;42.85
73245;BME280;61460;41.158;-73.238;2023-06-04T02:55:19;101933.74;;;24.83;42.79
73245;BME280;61460;41.158;-73.238;2023-06-04T02:57:50;101938.77;;;24.85;42.66
73245;BME280;61460;41.158;-73.238;2023-06-04T03:00:20;101933.95;;;24.94;42.18
73245;BME280;61460;41.158;-73.238;2023-06-04T03:02:51;101941.75;;;24.82;42.78
73245;BME280;61460;41.158;-73.238;2023-06-04T03:05:21;101945.57;;;24.74;42.74
73245;BME280;61460;41.158;-73.238;2023-06-04T03:07:52;101940.23;;;24.80;42.84
73245;BME280;61460;41.158;-73.238;2023-06-04T03:10:22;101940.84;;;24.91;42.45
73245;BME280;61460;41.158;-73.238;2023-06-04T03:12:52;101941.90;;;24.81;42.57
73245;BME280;61460;41.158;-73.238;2023-06-04T03:15:23;101941.01;;;24.83;42.63
73245;BME280;61460;41.158;-73.238;2023-06-04T03:17:54;101936.24;;;24.72;42.59
73245;BME280;61460;41.158;-73.238;2023-06-04T03:20:24;101931.21;;;24.68;43.26
73245;BME280;61460;41.158;-73.238;2023-06-04T03:22:55;101936.57;;;24.63;43.56
73245;BME280;61460;41.158;-73.238;2023-06-04T03:25:26;101940.78;;;24.75;43.07
73245;BME280;61460;41.158;-73.238;2023-06-04T03:27:56;101937.91;;;24.67;43.38
73245;BME280;61460;41.158;-73.238;2023-06-04T03:30:26;101930.87;;;24.65;43.49
73245;BME280;61460;41.158;-73.238;2023-06-04T03:32:57;101929.65;;;24.70;43.35
73245;BME280;61460;41.158;-73.238;2023-06-04T03:35:27;101930.95;;;24.78;43.72
73245;BME280;61460;41.158;-73.238;2023-06-04T03:37:57;101923.36;;;24.73;43.48
73245;BME280;61460;41.158;-73.238;2023-06-04T03:40:28;101924.61;;;24.77;43.14
73245;BME280;61460;41.158;-73.238;2023-06-04T03:42:59;101929.66;;;24.53;43.47
73245;BME280;61460;41.158;-73.238;2023-06-04T03:45:29;101916.83;;;24.60;43.21
73245;BME280;61460;41.158;-73.238;2023-06-04T03:48:00;101921.61;;;24.63;43.34
73245;BME280;61460;41.158;-73.238;2023-06-04T03:50:30;101916.23;;;24.52;43.73
73245;BME280;61460;41.158;-73.238;2023-06-04T03:53:00;101920.97;;;24.63;43.61
73245;BME280;61460;41.158;-73.238;2023-06-04T03:55:31;101918.68;;;24.63;43.43
73245;BME280;61460;41.158;-73.238;2023-06-04T03:58:01;101912.94;;;24.69;43.19
73245;BME280;61460;41.158;-73.238;2023-06-04T04:00:32;101911.62;;;24.57;43.57
73245;BME280;61460;41.158;-73.238;2023-06-04T04:03:02;101908.64;;;24.47;43.92
73245;BME280;61460;41.158;-73.238;2023-06-04T04:05:33;101904.28;;;24.52;43.81
73245;BME280;61460;41.158;-73.238;2023-06-04T04:08:03;101906.54;;;24.60;43.91
73245;BME280;61460;41.158;-73.238;2023-06-04T04:10:33;101906.04;;;24.49;43.99
73245;BME280;61460;41.158;-73.238;2023-06-04T04:13:04;101903.37;;;24.71;43.87
73245;BME280;61460;41.158;-73.238;2023-06-04T04:15:35;101904.73;;;24.53;43.90
73245;BME280;61460;41.158;-73.238;2023-06-04T04:18:05;101904.56;;;24.54;44.23
73245;BME280;61460;41.158;-73.238;2023-06-04T04:20:36;101912.15;;;24.62;43.85
73245;BME280;61460;41.158;-73.238;2023-06-04T04:23:06;101914.65;;;24.61;44.16
73245;BME280;61460;41.158;-73.238;2023-06-04T04:25:37;101912.73;;;24.49;44.50
73245;BME280;61460;41.158;-73.238;2023-06-04T04:28:08;101915.63;;;24.58;44.23
73245;BME280;61460;41.158;-73.238;2023-06-04T04:30:39;101908.51;;;24.53;44.21
73245;BME280;61460;41.158;-73.238;2023-06-04T04:33:09;101901.24;;;24.38;44.36
73245;BME280;61460;41.158;-73.238;2023-06-04T04:35:39;101908.65;;;24.51;44.25
73245;BME280;61460;41.158;-73.238;2023-06-04T04:38:09;101899.28;;;24.50;44.20
73245;BME280;61460;41.158;-73.238;2023-06-04T04:40:40;101905.42;;;24.44;44.21
73245;BME280;61460;41.158;-73.238;2023-06-04T04:43:10;101908.27;;;24.50;44.03
73245;BME280;61460;41.158;-73.238;2023-06-04T04:45:41;101901.71;;;24.43;43.94
73245;BME280;61460;41.158;-73.238;2023-06-04T04:48:11;101897.99;;;24.40;44.11
73245;BME280;61460;41.158;-73.238;2023-06-04T04:50:42;101893.19;;;24.40;44.22
73245;BME280;61460;41.158;-73.238;2023-06-04T04:53:12;101884.62;;;24.52;43.51
73245;BME280;61460;41.158;-73.238;2023-06-04T04:55:43;101875.43;;;24.48;43.52
73245;BME280;61460;41.158;-73.238;2023-06-04T04:58:14;101874.62;;;24.33;43.69
73245;BME280;61460;41.158;-73.238;2023-06-04T05:00:44;101875.18;;;24.34;43.63
73245;BME280;61460;41.158;-73.238;2023-06-04T05:03:14;101875.61;;;24.27;43.41
73245;BME280;61460;41.158;-73.238;2023-06-04T05:05:44;101875.25;;;24.39;43.11
73245;BME280;61460;41.158;-73.238;2023-06-04T05:08:15;101871.06;;;24.46;42.94
73245;BME280;61460;41.158;-73.238;2023-06-04T05:10:45;101874.98;;;24.35;43.38
73245;BME280;61460;41.158;-73.238;2023-06-04T05:13:16;101866.72;;;24.26;43.78
73245;BME280;61460;41.158;-73.238;2023-06-04T05:15:47;101865.11;;;24.20;44.28
73245;BME280;61460;41.158;-73.238;2023-06-04T05:18:18;101861.64;;;24.27;44.44
73245;BME280;61460;41.158;-73.238;2023-06-04T05:20:48;101859.05;;;24.30;44.28
73245;BME280;61460;41.158;-73.238;2023-06-04T05:23:19;101860.96;;;24.28;44.81
73245;BME280;61460;41.158;-73.238;2023-06-04T05:25:50;101860.78;;;24.53;44.91
73245;BME280;61460;41.158;-73.238;2023-06-04T05:28:20;101859.27;;;24.59;45.37
73245;BME280;61460;41.158;-73.238;2023-06-04T05:30:51;101862.72;;;24.36;45.94
73245;BME280;61460;41.158;-73.238;2023-06-04T05:33:21;101862.29;;;24.42;45.88
73245;BME280;61460;41.158;-73.238;2023-06-04T05:35:51;101860.38;;;24.30;46.06
73245;BME280;61460;41.158;-73.238;2023-06-04T05:38:21;101868.43;;;24.43;46.43
73245;BME280;61460;41.158;-73.238;2023-06-04T05:40:53;101866.97;;;24.32;45.95
73245;BME280;61460;41.158;-73.238;2023-06-04T05:43:23;101866.04;;;24.32;46.13
73245;BME280;61460;41.158;-73.238;2023-06-04T05:45:53;101854.57;;;24.47;45.98
73245;BME280;61460;41.158;-73.238;2023-06-04T05:48:24;101852.57;;;24.43;45.74
73245;BME280;61460;41.158;-73.238;2023-06-04T05:50:54;101848.92;;;24.22;46.25
73245;BME280;61460;41.158;-73.238;2023-06-04T05:53:24;101849.29;;;24.25;46.18
73245;BME280;61460;41.158;-73.238;2023-06-04T05:55:54;101848.31;;;24.28;46.16
73245;BME280;61460;41.158;-73.238;2023-06-04T05:58:25;101850.05;;;24.32;46.18
73245;BME280;61460;41.158;-73.238;2023-06-04T06:00:55;101843.85;;;24.25;46.29
73245;BME280;61460;41.158;-73.238;2023-06-04T06:03:25;101839.18;;;24.27;46.19
73245;BME280;61460;41.158;-73.238;2023-06-04T06:05:56;101843.26;;;24.30;46.09
73245;BME280;61460;41.158;-73.238;2023-06-04T06:08:26;101840.68;;;24.29;45.71
73245;BME280;61460;41.158;-73.238;2023-06-04T06:10:56;101833.30;;;24.34;46.22
73245;BME280;61460;41.158;-73.238;2023-06-04T06:13:27;101826.38;;;24.52;45.95
73245;BME280;61460;41.158;-73.238;2023-06-04T06:15:57;101820.67;;;24.42;46.35
73245;BME280;61460;41.158;-73.238;2023-06-04T06:18:28;101817.73;;;24.30;46.50
73245;BME280;61460;41.158;-73.238;2023-06-04T06:20:58;101814.12;;;24.30;46.51
73245;BME280;61460;41.158;-73.238;2023-06-04T06:23:28;101810.34;;;24.46;46.36
73245;BME280;61460;41.158;-73.238;2023-06-04T06:25:59;101808.32;;;24.29;46.82
73245;BME280;61460;41.158;-73.238;2023-06-04T06:28:30;101813.32;;;24.30;46.50
73245;BME280;61460;41.158;-73.238;2023-06-04T06:31:00;101808.50;;;24.21;46.91
73245;BME280;61460;41.158;-73.238;2023-06-04T06:33:31;101804.23;;;24.34;46.03
73245;BME280;61460;41.158;-73.238;2023-06-04T06:36:02;101800.75;;;24.19;46.77
73245;BME280;61460;41.158;-73.238;2023-06-04T06:38:32;101799.62;;;24.20;46.80
73245;BME280;61460;41.158;-73.238;2023-06-04T06:41:02;101798.84;;;24.33;46.29
73245;BME280;61460;41.158;-73.238;2023-06-04T06:43:32;101800.67;;;24.27;46.78
73245;BME280;61460;41.158;-73.238;2023-06-04T06:46:03;101796.06;;;24.40;46.34
73245;BME280;61460;41.158;-73.238;2023-06-04T06:48:33;101800.17;;;24.24;46.57
73245;BME280;61460;41.158;-73.238;2023-06-04T06:51:04;101800.08;;;24.33;46.57
73245;BME280;61460;41.158;-73.238;2023-06-04T06:53:34;101805.42;;;24.26;46.63
73245;BME280;61460;41.158;-73.238;2023-06-04T06:56:05;101802.79;;;24.28;46.83
73245;BME280;61460;41.158;-73.238;2023-06-04T06:58:35;101801.07;;;24.35;46.74
73245;BME280;61460;41.158;-73.238;2023-06-04T07:01:06;101798.65;;;24.23;46.84
73245;BME280;61460;41.158;-73.238;2023-06-04T07:03:36;101798.88;;;24.28;47.05
73245;BME280;61460;41.158;-73.238;2023-06-04T07:06:07;101794.48;;;24.24;47.12
73245;BME280;61460;41.158;-73.238;2023-06-04T07:08:38;101791.57;;;24.29;47.00
73245;BME280;61460;41.158;-73.238;2023-06-04T07:11:08;101789.17;;;24.20;47.22
73245;BME280;61460;41.158;-73.238;2023-06-04T07:13:39;101787.56;;;24.23;47.08
73245;BME280;61460;41.158;-73.238;2023-06-04T07:16:09;101788.64;;;24.27;47.05
73245;BME280;61460;41.158;-73.238;2023-06-04T07:18:40;101786.61;;;24.19;47.20
73245;BME280;61460;41.158;-73.238;2023-06-04T07:21:11;101781.82;;;24.34;46.73
73245;BME280;61460;41.158;-73.238;2023-06-04T07:23:41;101776.27;;;24.22;47.00
73245;BME280;61460;41.158;-73.238;2023-06-04T07:26:12;101778.79;;;24.20;46.98
73245;BME280;61460;41.158;-73.238;2023-06-04T07:28:43;101773.47;;;24.25;46.89
73245;BME280;61460;41.158;-73.238;2023-06-04T07:31:15;101768.40;;;24.20;46.78
73245;BME280;61460;41.158;-73.238;2023-06-04T07:33:43;101765.34;;;24.19;47.16
73245;BME280;61460;41.158;-73.238;2023-06-04T07:36:14;101766.62;;;24.16;47.09
73245;BME280;61460;41.158;-73.238;2023-06-04T07:38:44;101764.28;;;24.17;47.03
73245;BME280;61460;41.158;-73.238;2023-06-04T07:41:14;101758.84;;;24.20;46.96
73245;BME280;61460;41.158;-73.238;2023-06-04T07:43:44;101765.72;;;24.12;47.16
73245;BME280;61460;41.158;-73.238;2023-06-04T07:46:15;101766.00;;;24.19;47.04
73245;BME280;61460;41.158;-73.238;2023-06-04T07:48:45;101762.54;;;24.12;46.92
73245;BME280;61460;41.158;-73.238;2023-06-04T07:51:15;101762.45;;;24.18;47.26
73245;BME280;61460;41.158;-73.238;2023-06-04T07:53:45;101756.31;;;24.16;47.41
73245;BME280;61460;41.158;-73.238;2023-06-04T07:56:16;101754.52;;;24.07;47.23
73245;BME280;61460;41.158;-73.238;2023-06-04T07:58:47;101755.55;;;24.20;47.23
73245;BME280;61460;41.158;-73.238;2023-06-04T08:01:17;101745.09;;;24.11;47.34
73245;BME280;61460;41.158;-73.238;2023-06-04T08:03:48;101742.75;;;24.05;47.55
73245;BME280;61460;41.158;-73.238;2023-06-04T08:06:18;101741.22;;;24.09;47.29
73245;BME280;61460;41.158;-73.238;2023-06-04T08:08:49;101742.68;;;24.08;47.42
73245;BME280;61460;41.158;-73.238;2023-06-04T08:11:19;101741.18;;;24.11;47.43
73245;BME280;61460;41.158;-73.238;2023-06-04T08:13:49;101735.05;;;24.05;47.38
73245;BME280;61460;41.158;-73.238;2023-06-04T08:16:19;101735.71;;;24.01;47.27
73245;BME280;61460;41.158;-73.238;2023-06-04T08:18:50;101731.00;;;24.02;47.33
73245;BME280;61460;41.158;-73.238;2023-06-04T08:21:25;101739.42;;;24.13;47.13
73245;BME280;61460;41.158;-73.238;2023-06-04T08:23:50;101742.97;;;24.06;47.09
73245;BME280;61460;41.158;-73.238;2023-06-04T08:26:21;101729.22;;;24.00;47.40
73245;BME280;61460;41.158;-73.238;2023-06-04T08:28:51;101733.57;;;23.99;47.45
73245;BME280;61460;41.158;-73.238;2023-06-04T08:31:21;101730.09;;;24.08;47.16
73245;BME280;61460;41.158;-73.238;2023-06-04T08:33:52;101727.29;;;24.04;47.42
73245;BME280;61460;41.158;-73.238;2023-06-04T08:36:23;101724.54;;;24.11;47.22
73245;BME280;61460;41.158;-73.238;2023-06-04T08:38:53;101726.39;;;24.10;47.41
73245;BME280;61460;41.158;-73.238;2023-06-04T08:41:29;101722.77;;;23.99;47.63
73245;BME280;61460;41.158;-73.238;2023-06-04T08:43:56;101724.36;;;24.02;47.73
73245;BME280;61460;41.158;-73.238;2023-06-04T08:46:27;101726.60;;;23.96;47.77
73245;BME280;61460;41.158;-73.238;2023-06-04T08:49:00;101722.93;;;23.90;47.63
73245;BME280;61460;41.158;-73.238;2023-06-04T08:51:27;101719.49;;;23.89;47.42
73245;BME280;61460;41.158;-73.238;2023-06-04T08:53:58;101720.56;;;23.93;47.55
73245;BME280;61460;41.158;-73.238;2023-06-04T08:56:28;101720.55;;;23.97;47.32
73245;BME280;61460;41.158;-73.238;2023-06-04T08:59:01;101716.16;;;24.05;46.76
73245;BME280;61460;41.158;-73.238;2023-06-04T09:01:29;101714.67;;;23.91;47.23
73245;BME280;61460;41.158;-73.238;2023-06-04T09:04:01;101712.93;;;23.94;47.07
73245;BME280;61460;41.158;-73.238;2023-06-04T09:06:29;101708.68;;;23.96;47.12
73245;BME280;61460;41.158;-73.238;2023-06-04T09:09:02;101705.36;;;24.14;46.61
73245;BME280;61460;41.158;-73.238;2023-06-04T09:11:34;101707.49;;;24.09;46.62
73245;BME280;61460;41.158;-73.238;2023-06-04T09:14:03;101707.91;;;23.98;46.50
73245;BME280;61460;41.158;-73.238;2023-06-04T09:16:31;101704.91;;;23.98;46.53
73245;BME280;61460;41.158;-73.238;2023-06-04T09:19:02;101704.41;;;24.00;46.40
73245;BME280;61460;41.158;-73.238;2023-06-04T09:21:33;101692.87;;;24.19;46.48
73245;BME280;61460;41.158;-73.238;2023-06-04T09:24:03;101692.49;;;24.13;46.19
73245;BME280;61460;41.158;-73.238;2023-06-04T09:26:34;101692.05;;;23.97;46.38
73245;BME280;61460;41.158;-73.238;2023-06-04T09:29:05;101698.08;;;23.91;46.40
73245;BME280;61460;41.158;-73.238;2023-06-04T09:31:35;101696.86;;;23.88;46.16
73245;BME280;61460;41.158;-73.238;2023-06-04T09:34:06;101693.99;;;23.91;46.20
73245;BME280;61460;41.158;-73.238;2023-06-04T09:36:36;101695.52;;;23.91;46.14
73245;BME280;61460;41.158;-73.238;2023-06-04T09:39:15;101697.21;;;23.82;46.30
73245;BME280;61460;41.158;-73.238;2023-06-04T09:41:37;101699.14;;;23.92;45.97
73245;BME280;61460;41.158;-73.238;2023-06-04T09:44:07;101700.28;;;23.91;45.81
73245;BME280;61460;41.158;-73.238;2023-06-04T09:46:37;101700.22;;;23.82;45.91
73245;BME280;61460;41.158;-73.238;2023-06-04T09:49:08;101695.34;;;23.93;45.66
73245;BME280;61460;41.158;-73.238;2023-06-04T09:51:46;101696.72;;;23.96;45.54
73245;BME280;61460;41.158;-73.238;2023-06-04T09:54:08;101695.93;;;23.90;45.50
73245;BME280;61460;41.158;-73.238;2023-06-04T09:56:40;101685.48;;;23.91;45.65
73245;BME280;61460;41.158;-73.238;2023-06-04T09:59:10;101688.91;;;23.86;45.77
73245;BME280;61460;41.158;-73.238;2023-06-04T10:01:40;101690.79;;;23.91;45.58
73245;BME280;61460;41.158;-73.238;2023-06-04T10:04:13;101697.25;;;23.87;45.84
73245;BME280;61460;41.158;-73.238;2023-06-04T10:06:42;101695.13;;;23.87;45.76
73245;BME280;61460;41.158;-73.238;2023-06-04T10:09:13;101691.05;;;23.80;45.89
73245;BME280;61460;41.158;-73.238;2023-06-04T10:11:46;101690.94;;;23.90;45.76
73245;BME280;61460;41.158;-73.238;2023-06-04T10:14:18;101684.20;;;23.86;45.85
73245;BME280;61460;41.158;-73.238;2023-06-04T10:16:44;101679.74;;;23.95;45.71
73245;BME280;61460;41.158;-73.238;2023-06-04T10:19:15;101679.85;;;23.88;45.73
73245;BME280;61460;41.158;-73.238;2023-06-04T10:21:44;101684.10;;;23.95;45.64
73245;BME280;61460;41.158;-73.238;2023-06-04T10:24:14;101685.49;;;23.90;45.56
73245;BME280;61460;41.158;-73.238;2023-06-04T10:26:44;101677.08;;;24.02;45.56
73245;BME280;61460;41.158;-73.238;2023-06-04T10:29:16;101670.16;;;23.99;45.73
73245;BME280;61460;41.158;-73.238;2023-06-04T10:31:46;101668.86;;;23.96;45.63
73245;BME280;61460;41.158;-73.238;2023-06-04T10:34:16;101665.81;;;24.18;45.12
73245;BME280;61460;41.158;-73.238;2023-06-04T10:36:46;101664.25;;;24.09;45.74
73245;BME280;61460;41.158;-73.238;2023-06-04T10:39:25;101666.07;;;24.00;45.29
73245;BME280;61460;41.158;-73.238;2023-06-04T10:44:18;101664.73;;;24.14;45.55
73245;BME280;61460;41.158;-73.238;2023-06-04T10:46:48;101666.79;;;24.03;45.42
73245;BME280;61460;41.158;-73.238;2023-06-04T10:49:26;101664.18;;;24.13;45.65
73245;BME280;61460;41.158;-73.238;2023-06-04T10:51:49;101660.59;;;24.04;45.47
73245;BME280;61460;41.158;-73.238;2023-06-04T10:54:23;101662.62;;;24.27;45.27
73245;BME280;61460;41.158;-73.238;2023-06-04T10:56:51;101665.35;;;24.26;45.26
73245;BME280;61460;41.158;-73.238;2023-06-04T10:59:21;101662.63;;;24.17;45.66
73245;BME280;61460;41.158;-73.238;2023-06-04T11:02:02;101661.64;;;24.21;45.46
73245;BME280;61460;41.158;-73.238;2023-06-04T11:04:23;101663.54;;;24.50;45.12
73245;BME280;61460;41.158;-73.238;2023-06-04T11:07:01;101668.86;;;24.49;44.86
73245;BME280;61460;41.158;-73.238;2023-06-04T11:09:23;101668.79;;;24.45;44.22
73245;BME280;61460;41.158;-73.238;2023-06-04T11:11:57;101669.46;;;24.37;44.90
73245;BME280;61460;41.158;-73.238;2023-06-04T11:14:25;101672.50;;;24.36;45.13
73245;BME280;61460;41.158;-73.238;2023-06-04T11:16:55;101664.70;;;24.35;44.70
73245;BME280;61460;41.158;-73.238;2023-06-04T11:21:55;101662.20;;;24.37;44.88
73245;BME280;61460;41.158;-73.238;2023-06-04T11:24:26;101656.70;;;24.45;44.75
73245;BME280;61460;41.158;-73.238;2023-06-04T11:26:57;101650.77;;;24.56;44.62
73245;BME280;61460;41.158;-73.238;2023-06-04T11:29:27;101656.94;;;24.38;44.57
73245;BME280;61460;41.158;-73.238;2023-06-04T11:31:57;101658.64;;;24.43;44.92
73245;BME280;61460;41.158;-73.238;2023-06-04T11:34:28;101653.98;;;24.57;44.79
73245;BME280;61460;41.158;-73.238;2023-06-04T11:39:34;101661.67;;;24.76;44.25
73245;BME280;61460;41.158;-73.238;2023-06-04T11:42:04;101663.84;;;24.55;44.64
73245;BME280;61460;41.158;-73.238;2023-06-04T11:44:30;101669.35;;;24.69;44.69
73245;BME280;61460;41.158;-73.238;2023-06-04T11:47:01;101666.34;;;24.64;44.90
73245;BME280;61460;41.158;-73.238;2023-06-04T11:49:31;101668.36;;;24.75;44.99
73245;BME280;61460;41.158;-73.238;2023-06-04T11:52:02;101660.77;;;24.72;44.99
73245;BME280;61460;41.158;-73.238;2023-06-04T11:54:32;101665.76;;;24.77;44.89
73245;BME280;61460;41.158;-73.238;2023-06-04T11:57:03;101666.34;;;24.79;44.97
73245;BME280;61460;41.158;-73.238;2023-06-04T11:59:32;101674.34;;;24.79;44.96
73245;BME280;61460;41.158;-73.238;2023-06-04T12:02:03;101668.73;;;24.72;45.16
73245;BME280;61460;41.158;-73.238;2023-06-04T12:04:33;101665.88;;;24.77;45.04
73245;BME280;61460;41.158;-73.238;2023-06-04T12:07:03;101667.15;;;24.73;44.99
73245;BME280;61460;41.158;-73.238;2023-06-04T12:09:34;101662.09;;;24.67;45.33
73245;BME280;61460;41.158;-73.238;2023-06-04T12:12:05;101670.64;;;24.81;44.81
73245;BME280;61460;41.158;-73.238;2023-06-04T12:14:34;101669.22;;;24.87;44.14
73245;BME280;61460;41.158;-73.238;2023-06-04T12:17:07;101671.96;;;24.89;44.62
73245;BME280;61460;41.158;-73.238;2023-06-04T12:22:07;101675.60;;;24.82;44.60
73245;BME280;61460;41.158;-73.238;2023-06-04T12:24:46;101674.94;;;24.82;44.57
73245;BME280;61460;41.158;-73.238;2023-06-04T12:27:09;101672.41;;;24.78;44.57
73245;BME280;61460;41.158;-73.238;2023-06-04T12:29:38;101673.27;;;24.75;44.67
73245;BME280;61460;41.158;-73.238;2023-06-04T12:32:10;101671.35;;;24.75;44.52
73245;BME280;61460;41.158;-73.238;2023-06-04T12:34:40;101666.59;;;24.57;44.73
73245;BME280;61460;41.158;-73.238;2023-06-04T12:37:10;101667.20;;;24.75;44.35
73245;BME280;61460;41.158;-73.238;2023-06-04T12:39:41;101663.84;;;24.94;44.31
73245;BME280;61460;41.158;-73.238;2023-06-04T12:42:11;101657.48;;;24.87;44.60
73245;BME280;61460;41.158;-73.238;2023-06-04T12:44:42;101658.60;;;24.79;45.00
73245;BME280;61460;41.158;-73.238;2023-06-04T12:47:12;101653.77;;;24.75;44.97
73245;BME280;61460;41.158;-73.238;2023-06-04T12:49:42;101660.34;;;24.78;45.13
73245;BME280;61460;41.158;-73.238;2023-06-04T12:52:13;101653.53;;;24.77;44.85
73245;BME280;61460;41.158;-73.238;2023-06-04T12:54:43;101653.31;;;24.65;44.88
73245;BME280;61460;41.158;-73.238;2023-06-04T12:57:13;101657.83;;;24.66;44.82
73245;BME280;61460;41.158;-73.238;2023-06-04T12:59:44;101654.87;;;24.69;44.66